Terminal Aerodrome Forecast
Issued by NWS

Home | Current Version | Previous Version | Text Only | Print | Product List | Glossary On
Versions: 1 2 3 4 5 6 7 8 9 10 11 12 13 14 15 16 17 18
000
FTUS44 KLZK 041300 AAA
TAFBPK
TAF AMD
KBPK 041340Z 0414/0512 36006KT 4SM -RA BR OVC008
      TEMPO 0414/0416 2SM -RA BR OVC005
     FM041600 36009KT 4SM -FZRA BR OVC005
     FM041800 01010KT 4SM -PLSN BR OVC005
     FM042000 01010KT 3SM -SN BR OVC004
     FM050000 36010KT 3SM -SN BR OVC004
     FM050600 02009KT 5SM -SN BR SCT005 OVC012=

USA.gov is the U.S. government's official web portal to all federal, state and local government web resources and services.